Time;durP1;ratioP1;P1;durP2;ratioP2;P2;SDS_P1;SDS_P2;PMS_P1;PMS_P2;Temp;Humidity;BMP_temperature;BMP_pressure;BME280_temperature;BME280_humidity;BME280_pressure;Samples;Min_cycle;Max_cycle;Signal;HPM_P1;HPM_P2
2023/12/02 00:00:11;;;;;;;1604.63;999.90;;;27.60;99.90;;;;;;5074628;28;20031;-67
2023/12/02 00:02:38;;;;;;;1603.88;999.90;;;27.60;99.90;;;;;;5093825;28;20089;-67
2023/12/02 00:05:05;;;;;;;1597.18;999.90;;;27.70;99.90;;;;;;5093685;28;20612;-67
2023/12/02 00:07:31;;;;;;;1606.35;999.90;;;27.60;99.90;;;;;;5093821;28;20035;-66
2023/12/02 00:09:58;;;;;;;1597.13;999.90;;;27.60;99.90;;;;;;5093818;28;20089;-66
2023/12/02 00:12:24;;;;;;;1606.65;999.90;;;27.70;99.90;;;;;;5093550;28;20028;-66
2023/12/02 00:14:51;;;;;;;1606.55;999.90;;;27.70;99.90;;;;;;5093669;28;20077;-66
2023/12/02 00:17:18;;;;;;;1604.63;999.90;;;27.80;99.90;;;;;;5093453;28;20435;-67
2023/12/02 00:19:44;;;;;;;1603.07;999.90;;;27.80;99.90;;;;;;5092922;28;20424;-67
2023/12/02 00:22:11;;;;;;;1586.88;999.90;;;27.80;99.90;;;;;;5093562;28;20512;-68
2023/12/02 00:24:37;;;;;;;1595.18;999.90;;;27.80;99.90;;;;;;5093631;28;20028;-67
2023/12/02 00:27:04;;;;;;;1598.75;999.90;;;27.70;99.90;;;;;;5092539;28;20471;-66
2023/12/02 00:29:31;;;;;;;1613.95;999.90;;;27.70;99.90;;;;;;5087028;28;20025;-68
2023/12/02 00:31:57;;;;;;;1597.88;999.90;;;27.70;99.90;;;;;;5081883;28;20048;-67
2023/12/02 00:34:24;;;;;;;1596.80;999.90;;;27.70;99.90;;;;;;5075283;28;20581;-66
2023/12/02 00:36:50;;;;;;;1600.45;999.90;;;27.70;99.90;;;;;;5093700;28;20016;-66
2023/12/02 00:39:17;;;;;;;1594.13;999.90;;;27.80;99.90;;;;;;5093533;28;20016;-67
2023/12/02 00:41:43;;;;;;;1579.00;999.90;;;27.80;99.90;;;;;;5093703;28;20027;-67
2023/12/02 00:44:10;;;;;;;1590.75;999.90;;;27.80;99.90;;;;;;5093537;28;20461;-67
2023/12/02 00:46:37;;;;;;;1595.38;999.90;;;27.80;99.90;;;;;;5093377;28;20046;-67
2023/12/02 00:49:03;;;;;;;1596.57;999.90;;;27.90;99.90;;;;;;5093286;28;20493;-67
2023/12/02 00:51:30;;;;;;;1591.22;999.90;;;28.00;99.90;;;;;;5093366;28;20024;-68
2023/12/02 00:53:56;;;;;;;1573.95;999.90;;;27.90;99.90;;;;;;5093181;28;20028;-67
2023/12/02 00:56:23;;;;;;;1582.00;999.90;;;28.00;99.90;;;;;;5093364;28;20039;-68
2023/12/02 00:58:49;;;;;;;1582.03;999.90;;;28.00;99.90;;;;;;5093012;28;20020;-67
2023/12/02 01:01:16;;;;;;;1593.35;999.90;;;28.10;99.90;;;;;;5093338;28;20020;-67
2023/12/02 01:03:42;;;;;;;1567.55;999.90;;;28.20;99.90;;;;;;5093231;28;20099;-68
2023/12/02 01:06:09;;;;;;;1600.45;999.90;;;28.20;99.90;;;;;;5093116;28;20016;-70
2023/12/02 01:08:36;;;;;;;1563.78;999.90;;;28.20;99.90;;;;;;5093596;28;20030;-70
2023/12/02 01:11:02;;;;;;;1577.10;999.90;;;28.30;99.90;;;;;;5093798;28;20393;-69
2023/12/02 01:13:29;;;;;;;1573.72;999.90;;;28.20;99.90;;;;;;5093280;28;20028;-67
2023/12/02 01:15:56;;;;;;;1594.75;999.90;;;28.30;99.90;;;;;;5093113;28;20024;-67
2023/12/02 01:18:23;;;;;;;1584.95;999.90;;;28.40;99.90;;;;;;5092989;28;20114;-68
2023/12/02 01:20:49;;;;;;;1574.68;999.90;;;28.40;99.90;;;;;;5092874;28;20020;-67
2023/12/02 01:23:16;;;;;;;1579.93;999.90;;;28.40;99.90;;;;;;5092882;28;20020;-68
2023/12/02 01:25:43;;;;;;;1591.57;999.90;;;28.50;99.90;;;;;;5093281;28;20080;-67
2023/12/02 01:28:09;;;;;;;1589.25;999.90;;;28.60;99.90;;;;;;5093360;28;20039;-68
2023/12/02 01:30:35;;;;;;;1597.50;999.90;;;28.60;99.90;;;;;;5093196;28;20047;-68
2023/12/02 01:33:02;;;;;;;1571.20;999.90;;;28.60;99.90;;;;;;5096765;28;20082;-68
2023/12/02 01:35:29;;;;;;;1574.90;999.90;;;28.70;99.90;;;;;;5097004;28;20425;-67
2023/12/02 01:37:55;;;;;;;1585.80;999.90;;;28.70;99.90;;;;;;5091722;28;20145;-68
2023/12/02 01:40:22;;;;;;;1592.88;999.90;;;28.70;99.90;;;;;;5087922;28;20558;-67
2023/12/02 01:42:48;;;;;;;1592.60;999.90;;;28.70;99.90;;;;;;5085629;28;20025;-67
2023/12/02 01:45:15;;;;;;;1570.72;999.90;;;28.80;99.90;;;;;;5076414;28;20031;-68
2023/12/02 01:47:43;;;;;;;1552.60;999.90;;;28.80;99.90;;;;;;5076416;28;20107;-68
2023/12/02 01:50:10;;;;;;;1589.68;999.90;;;28.70;99.90;;;;;;5076465;28;20016;-68
2023/12/02 01:52:37;;;;;;;1486.90;999.90;;;28.70;99.90;;;;;;5076385;28;20027;-68
2023/12/02 01:55:04;;;;;;;1585.35;999.90;;;28.80;99.90;;;;;;5076303;28;20391;-68
2023/12/02 01:57:31;;;;;;;1582.65;999.90;;;28.90;99.90;;;;;;5095873;28;20032;-67
2023/12/02 01:59:58;;;;;;;1585.05;999.90;;;28.90;99.90;;;;;;5096371;28;20035;-68
2023/12/02 02:02:25;;;;;;;1574.75;999.90;;;29.00;99.90;;;;;;5096634;28;20034;-68
2023/12/02 02:04:54;;;;;;;1561.63;999.90;;;29.10;99.90;;;;;;5096487;28;20378;-69
2023/12/02 02:07:21;;;;;;;1543.88;999.90;;;29.20;99.90;;;;;;5096220;28;20525;-69
2023/12/02 02:09:48;;;;;;;1568.38;999.90;;;29.30;99.90;;;;;;5096081;28;20024;-69
2023/12/02 02:12:16;;;;;;;1598.22;999.90;;;29.40;99.90;;;;;;5096078;28;20101;-69
2023/12/02 02:14:42;;;;;;;1595.18;999.90;;;29.40;99.90;;;;;;5095881;28;20061;-66
2023/12/02 02:17:09;;;;;;;1495.90;999.90;;;29.50;99.90;;;;;;5095708;28;20024;-66
2023/12/02 02:19:36;;;;;;;1581.18;999.90;;;29.50;99.90;;;;;;5095719;28;20051;-67
2023/12/02 02:22:03;;;;;;;1595.18;999.90;;;29.60;99.90;;;;;;5095487;28;20024;-67
2023/12/02 02:24:30;;;;;;;1547.43;999.90;;;29.60;99.90;;;;;;5101360;28;20027;-67
2023/12/02 02:26:56;;;;;;;1590.40;999.90;;;29.60;99.90;;;;;;5103740;28;20490;-67
2023/12/02 02:29:23;;;;;;;1593.05;999.90;;;29.60;99.90;;;;;;5105754;28;20032;-67
2023/12/02 02:31:49;;;;;;;1590.40;999.90;;;29.70;99.90;;;;;;5104646;28;20024;-69
2023/12/02 02:34:16;;;;;;;1586.80;999.90;;;29.80;99.90;;;;;;5106341;28;20011;-68
2023/12/02 02:36:43;;;;;;;1581.43;999.90;;;29.90;99.90;;;;;;5105431;28;20024;-68
2023/12/02 02:39:10;;;;;;;1576.03;999.90;;;30.00;99.90;;;;;;5113103;28;20110;-65
2023/12/02 02:41:37;;;;;;;1579.68;999.90;;;30.10;99.90;;;;;;5111212;28;20038;-67
2023/12/02 02:44:03;;;;;;;1557.70;999.90;;;30.10;99.90;;;;;;5105153;28;20024;-67
2023/12/02 02:46:30;;;;;;;1575.97;999.90;;;30.10;99.90;;;;;;5104185;28;20012;-66
2023/12/02 02:48:57;;;;;;;1580.70;999.90;;;30.10;99.90;;;;;;5100552;28;20112;-66
2023/12/02 02:51:23;;;;;;;1579.22;999.90;;;30.20;99.90;;;;;;5094213;28;20061;-66
2023/12/02 02:53:50;;;;;;;1582.35;999.90;;;30.40;99.90;;;;;;5101832;28;20020;-67
2023/12/02 02:56:19;;;;;;;1581.95;999.90;;;30.40;99.90;;;;;;5094214;28;20020;-66
2023/12/02 02:58:46;;;;;;;1579.97;999.90;;;30.40;99.90;;;;;;5105501;28;20038;-66
2023/12/02 03:01:13;;;;;;;1580.78;999.90;;;30.40;99.90;;;;;;5105957;28;20012;-66
2023/12/02 03:03:39;;;;;;;1583.85;999.90;;;30.40;99.90;;;;;;5098834;28;20020;-69
2023/12/02 03:06:07;;;;;;;1562.93;999.90;;;30.50;99.90;;;;;;5097482;28;20034;-67
2023/12/02 03:08:34;;;;;;;1586.85;999.90;;;30.60;99.90;;;;;;5101159;28;20380;-68
2023/12/02 03:11:01;;;;;;;1590.20;999.90;;;30.70;99.90;;;;;;5100377;28;20039;-67
2023/12/02 03:13:28;;;;;;;1582.00;999.90;;;30.80;99.90;;;;;;5096790;28;20024;-68
2023/12/02 03:15:54;;;;;;;1589.28;999.90;;;30.90;99.90;;;;;;5097459;28;20276;-67
2023/12/02 03:18:21;;;;;;;1586.05;999.90;;;30.90;99.90;;;;;;5096839;28;20123;-67
2023/12/02 03:20:47;;;;;;;1588.47;999.90;;;31.00;99.90;;;;;;5102787;28;20012;-67
2023/12/02 03:23:15;;;;;;;1558.50;999.90;;;31.00;99.90;;;;;;5091557;28;20019;-69
2023/12/02 03:25:41;;;;;;;1586.95;999.90;;;31.10;99.90;;;;;;5093403;28;20028;-67
2023/12/02 03:28:08;;;;;;;1574.43;999.90;;;31.10;99.90;;;;;;5103529;28;20055;-69
2023/12/02 03:30:34;;;;;;;1577.28;999.90;;;31.10;99.90;;;;;;5076640;28;20581;-69
2023/12/02 03:33:02;;;;;;;1579.97;999.90;;;31.20;99.90;;;;;;5088745;28;20032;-69
2023/12/02 03:35:28;;;;;;;1571.50;999.90;;;31.20;99.90;;;;;;5074026;28;20031;-69
2023/12/02 03:37:55;;;;;;;1593.18;999.90;;;31.30;99.90;;;;;;5074080;28;20031;-68
2023/12/02 03:40:21;;;;;;;1590.43;999.90;;;31.20;99.90;;;;;;5073721;28;20062;-67
2023/12/02 03:42:48;;;;;;;1585.75;999.90;;;31.10;99.90;;;;;;5077680;28;20024;-68
2023/12/02 03:45:15;;;;;;;1567.03;999.90;;;31.20;99.90;;;;;;5079098;28;20024;-68
2023/12/02 03:47:42;;;;;;;1584.18;999.90;;;31.10;99.90;;;;;;5078384;28;20398;-67
2023/12/02 03:50:09;;;;;;;1575.55;999.90;;;31.10;99.90;;;;;;5078176;28;20033;-67
2023/12/02 03:52:35;;;;;;;1584.15;999.90;;;31.10;99.90;;;;;;5080949;28;20103;-67
2023/12/02 03:55:02;;;;;;;1571.95;999.90;;;31.10;99.90;;;;;;5075251;28;20029;-68
2023/12/02 03:57:29;;;;;;;1589.20;999.90;;;31.10;99.90;;;;;;5081008;28;20051;-69
2023/12/02 03:59:56;;;;;;;1573.75;999.90;;;31.30;99.90;;;;;;5078630;28;20021;-70
2023/12/02 04:02:22;;;;;;;1590.80;999.90;;;31.30;99.90;;;;;;5074104;28;20108;-69
2023/12/02 04:04:50;;;;;;;1593.03;999.90;;;31.50;99.90;;;;;;5088739;28;20020;-68
2023/12/02 04:07:18;;;;;;;1570.07;999.90;;;31.50;99.90;;;;;;5094121;28;20019;-68
2023/12/02 04:09:45;;;;;;;1594.40;999.90;;;31.60;99.90;;;;;;5094198;28;20450;-65
2023/12/02 04:12:11;;;;;;;1560.38;999.90;;;31.70;99.90;;;;;;5094367;28;20215;-66
2023/12/02 04:14:38;;;;;;;1593.32;999.90;;;31.70;99.90;;;;;;5094121;28;20508;-67
2023/12/02 04:17:05;;;;;;;1589.45;999.90;;;31.70;99.90;;;;;;5082326;28;20062;-68
2023/12/02 04:19:32;;;;;;;1596.07;999.90;;;31.80;99.90;;;;;;5074116;28;20139;-68
2023/12/02 04:21:59;;;;;;;1595.57;999.90;;;32.00;99.90;;;;;;5073108;28;20055;-69
2023/12/02 04:24:25;;;;;;;1585.28;999.90;;;32.10;99.90;;;;;;5074023;28;20017;-68
2023/12/02 04:26:52;;;;;;;1588.72;999.90;;;32.10;99.90;;;;;;5081313;28;20115;-69
2023/12/02 04:29:18;;;;;;;1584.50;999.90;;;32.10;99.90;;;;;;5083443;28;20116;-69
2023/12/02 04:31:45;;;;;;;1576.43;999.90;;;32.10;99.90;;;;;;5081342;28;20057;-67
2023/12/02 04:34:11;;;;;;;1575.25;999.90;;;32.20;99.90;;;;;;5078829;28;20032;-68
2023/12/02 04:36:38;;;;;;;1593.95;999.90;;;32.10;99.90;;;;;;5073332;28;20036;-68
2023/12/02 04:39:04;;;;;;;1573.72;999.90;;;32.10;99.90;;;;;;5073062;28;20021;-68
2023/12/02 04:41:31;;;;;;;1592.85;999.90;;;32.10;99.90;;;;;;5073744;28;20378;-68
2023/12/02 04:43:58;;;;;;;1569.05;999.90;;;32.10;99.90;;;;;;5073384;28;20021;-68
2023/12/02 04:46:24;;;;;;;1599.82;999.90;;;32.10;99.90;;;;;;5073396;28;20020;-68
2023/12/02 04:48:51;;;;;;;1591.63;999.90;;;32.20;99.90;;;;;;5073298;28;20033;-69
2023/12/02 04:51:17;;;;;;;1566.82;999.90;;;32.30;99.90;;;;;;5073277;28;20016;-68
2023/12/02 04:53:44;;;;;;;1578.25;999.90;;;32.30;99.90;;;;;;5076575;28;20025;-68
2023/12/02 04:56:11;;;;;;;1582.13;999.90;;;32.30;99.90;;;;;;5072973;28;20386;-68
2023/12/02 04:58:38;;;;;;;1583.63;999.90;;;32.30;99.90;;;;;;5085472;28;20070;-68
2023/12/02 05:01:04;;;;;;;1560.38;999.90;;;32.40;99.90;;;;;;5100374;28;20050;-67
2023/12/02 05:03:31;;;;;;;1577.47;999.90;;;32.40;99.90;;;;;;5104167;28;20069;-68
2023/12/02 05:05:57;;;;;;;1569.57;999.90;;;32.40;99.90;;;;;;5096962;28;20462;-68
2023/12/02 05:08:24;;;;;;;1586.63;999.90;;;32.50;99.90;;;;;;5108177;28;20221;-68
2023/12/02 05:10:51;;;;;;;1573.43;999.90;;;32.40;99.90;;;;;;5108356;28;20366;-67
2023/12/02 05:13:17;;;;;;;1583.63;999.90;;;32.40;99.90;;;;;;5101789;28;20019;-69
2023/12/02 05:15:44;;;;;;;1572.18;999.90;;;32.50;99.90;;;;;;5103491;28;20420;-68
2023/12/02 05:18:11;;;;;;;1590.07;999.90;;;32.50;99.90;;;;;;5108145;28;20523;-69
2023/12/02 05:20:38;;;;;;;1585.72;999.90;;;32.40;99.90;;;;;;5101226;28;20095;-72
2023/12/02 05:23:05;;;;;;;1569.53;999.90;;;32.40;99.90;;;;;;5105978;28;20011;-68
2023/12/02 05:25:31;;;;;;;1591.45;999.90;;;32.30;99.90;;;;;;5107634;28;20094;-68
2023/12/02 05:27:58;;;;;;;1587.93;999.90;;;32.30;99.90;;;;;;5112084;28;20111;-68
2023/12/02 05:30:25;;;;;;;1586.15;999.90;;;32.30;99.90;;;;;;5116973;28;20192;-70
2023/12/02 05:32:52;;;;;;;1569.40;999.90;;;32.40;99.90;;;;;;5116482;28;20432;-68
2023/12/02 05:35:19;;;;;;;1578.18;999.90;;;32.40;99.90;;;;;;5116161;28;20023;-68
2023/12/02 05:37:45;;;;;;;1579.18;999.90;;;32.40;99.90;;;;;;5116899;28;20020;-68
2023/12/02 05:40:12;;;;;;;1567.95;999.90;;;32.40;99.90;;;;;;5109173;28;20069;-68
2023/12/02 05:42:38;;;;;;;1589.15;999.90;;;32.30;99.90;;;;;;5082155;28;20479;-68
2023/12/02 05:45:06;;;;;;;1570.38;999.90;;;32.40;99.90;;;;;;5085007;28;20024;-69
2023/12/02 05:47:32;;;;;;;1589.00;999.90;;;32.50;99.90;;;;;;5096512;28;20020;-68
2023/12/02 05:49:59;;;;;;;1583.65;999.90;;;32.50;99.90;;;;;;5096325;28;20043;-65
2023/12/02 05:52:25;;;;;;;1591.82;999.90;;;32.50;99.90;;;;;;5096154;28;20024;-66
2023/12/02 05:54:52;;;;;;;1589.68;999.90;;;32.50;99.90;;;;;;5091152;28;20107;-68
2023/12/02 05:57:19;;;;;;;1586.32;999.90;;;32.60;99.90;;;;;;5075963;28;20025;-68
2023/12/02 05:59:45;;;;;;;1574.95;999.90;;;32.60;99.90;;;;;;5075727;28;20035;-68
2023/12/02 06:02:12;;;;;;;1593.53;999.90;;;32.60;99.90;;;;;;5079024;28;20035;-68
2023/12/02 06:04:38;;;;;;;1577.03;999.90;;;32.60;99.90;;;;;;5105178;28;20093;-67
2023/12/02 06:07:05;;;;;;;1592.80;999.90;;;32.60;99.90;;;;;;5107329;28;20114;-67
2023/12/02 06:09:31;;;;;;;1573.65;999.90;;;32.60;99.90;;;;;;5104861;28;20473;-67
2023/12/02 06:11:58;;;;;;;1576.68;999.90;;;32.70;99.90;;;;;;5105523;28;20389;-68
2023/12/02 06:14:24;;;;;;;1588.60;999.90;;;32.70;99.90;;;;;;5106410;28;20031;-67
2023/12/02 06:16:51;;;;;;;1585.72;999.90;;;32.60;99.90;;;;;;5101648;28;20020;-67
2023/12/02 06:19:20;;;;;;;1574.68;999.90;;;32.70;99.90;;;;;;5095595;28;20373;-67
2023/12/02 06:21:47;;;;;;;1592.22;999.90;;;32.60;99.90;;;;;;5095575;28;20024;-68
2023/12/02 06:24:13;;;;;;;1590.10;999.90;;;32.70;99.90;;;;;;5095686;28;20028;-69
2023/12/02 06:26:40;;;;;;;1590.72;999.90;;;32.70;99.90;;;;;;5095240;28;20086;-68
2023/12/02 06:29:07;;;;;;;1591.30;999.90;;;32.70;99.90;;;;;;5096289;28;20069;-68
2023/12/02 06:31:33;;;;;;;1591.72;999.90;;;32.70;99.90;;;;;;5105248;28;20055;-69
2023/12/02 06:34:00;;;;;;;1585.82;999.90;;;32.70;99.90;;;;;;5112000;28;20488;-67
2023/12/02 06:36:26;;;;;;;1588.22;999.90;;;32.80;99.90;;;;;;5115885;28;20032;-68
2023/12/02 06:38:53;;;;;;;1573.78;999.90;;;32.90;99.90;;;;;;5107195;28;20090;-68
2023/12/02 06:41:19;;;;;;;1576.93;999.90;;;32.90;99.90;;;;;;5105193;28;20023;-69
2023/12/02 06:43:46;;;;;;;1591.65;999.90;;;32.90;99.90;;;;;;5104110;28;20561;-69
2023/12/02 06:46:21;;;;;;;1586.25;999.90;;;33.00;99.90;;;;;;5101278;28;20024;-69
2023/12/02 06:48:49;;;;;;;1586.85;999.90;;;33.00;99.90;;;;;;5103785;28;20110;-69
2023/12/02 06:51:17;;;;;;;1585.35;999.90;;;33.10;99.90;;;;;;5105305;28;20049;-68
2023/12/02 06:53:43;;;;;;;1583.50;999.90;;;33.20;99.90;;;;;;5105401;28;20016;-69
2023/12/02 06:56:21;;;;;;;1590.22;999.90;;;33.20;99.90;;;;;;5103611;28;20378;-68
2023/12/02 06:58:49;;;;;;;1591.53;999.90;;;33.20;99.90;;;;;;5103554;28;20020;-69
2023/12/02 07:01:35;;;;;;;1593.38;999.90;;;33.20;99.90;;;;;;5105214;28;20023;-69
2023/12/02 07:04:01;;;;;;;1576.93;999.90;;;33.10;99.90;;;;;;5093116;28;20024;-68
2023/12/02 07:06:28;;;;;;;1596.63;999.90;;;33.20;99.90;;;;;;5094981;28;20069;-69
2023/12/02 07:08:55;;;;;;;1589.97;999.90;;;33.30;99.90;;;;;;5094838;28;20055;-68
2023/12/02 07:11:22;;;;;;;1587.57;999.90;;;33.30;99.90;;;;;;5094643;28;20467;-69
2023/12/02 07:13:49;;;;;;;1588.93;999.90;;;33.30;99.90;;;;;;5094745;28;20037;-68
2023/12/02 07:16:15;;;;;;;1584.05;999.90;;;33.40;99.90;;;;;;5094565;28;20044;-69
2023/12/02 07:18:43;;;;;;;1591.30;999.90;;;33.40;99.90;;;;;;5094165;28;20534;-67
2023/12/02 07:21:10;;;;;;;1575.20;999.90;;;33.40;99.90;;;;;;5092485;28;20088;-67
2023/12/02 07:23:36;;;;;;;1571.10;999.90;;;33.40;99.90;;;;;;5092695;28;20445;-67
2023/12/02 07:26:03;;;;;;;1580.13;999.90;;;33.50;99.90;;;;;;5092619;28;20059;-68
2023/12/02 07:28:30;;;;;;;1601.65;999.90;;;33.60;99.90;;;;;;5093617;28;20035;-68
2023/12/02 07:30:56;;;;;;;1576.65;999.90;;;33.60;99.90;;;;;;5093808;28;20367;-68
2023/12/02 07:33:23;;;;;;;1587.00;999.90;;;33.70;99.90;;;;;;5093839;28;20493;-69
2023/12/02 07:35:49;;;;;;;1589.07;999.90;;;33.70;99.90;;;;;;5094181;28;20032;-68
2023/12/02 07:38:16;;;;;;;1597.88;999.90;;;33.80;99.90;;;;;;5094068;28;20028;-68
2023/12/02 07:40:42;;;;;;;1595.80;999.90;;;33.80;99.90;;;;;;5087102;28;20016;-69
2023/12/02 07:43:09;;;;;;;1582.03;999.90;;;34.00;99.90;;;;;;5073804;28;20048;-67
2023/12/02 07:45:36;;;;;;;1583.82;999.90;;;34.00;99.90;;;;;;5082416;28;20482;-68
2023/12/02 07:48:02;;;;;;;1597.20;999.90;;;34.00;99.90;;;;;;5090230;28;20039;-67
2023/12/02 07:50:29;;;;;;;1591.10;999.90;;;34.00;99.90;;;;;;5109992;28;20027;-67
2023/12/02 07:52:55;;;;;;;1591.35;999.90;;;33.90;99.90;;;;;;5114246;28;20488;-68
2023/12/02 07:55:22;;;;;;;1577.80;999.90;;;33.80;99.90;;;;;;5114310;28;20408;-68
2023/12/02 07:57:49;;;;;;;1589.22;999.90;;;33.80;99.90;;;;;;5114045;28;20523;-68
2023/12/02 08:00:16;;;;;;;1590.72;999.90;;;33.90;99.90;;;;;;5114343;28;20054;-67
2023/12/02 08:02:42;;;;;;;1594.97;999.90;;;33.90;99.90;;;;;;5114073;28;20019;-67
2023/12/02 08:05:09;;;;;;;1588.78;999.90;;;34.00;99.90;;;;;;5113948;28;20093;-67
2023/12/02 08:07:36;;;;;;;1593.75;999.90;;;34.10;99.90;;;;;;5114358;28;20057;-68
2023/12/02 08:10:03;;;;;;;1598.13;999.90;;;34.10;99.90;;;;;;5114064;28;20076;-67
2023/12/02 08:12:29;;;;;;;1597.22;999.90;;;34.10;99.90;;;;;;5106144;28;20021;-68
2023/12/02 08:14:56;;;;;;;1582.75;999.90;;;34.10;99.90;;;;;;5093569;28;20371;-68
2023/12/02 08:17:22;;;;;;;1598.10;999.90;;;34.10;99.90;;;;;;5093494;28;20099;-68
2023/12/02 08:19:49;;;;;;;1598.90;999.90;;;34.20;99.90;;;;;;5094757;28;20025;-68
2023/12/02 08:22:19;;;;;;;1597.65;999.90;;;34.20;99.90;;;;;;5097676;28;20145;-68
2023/12/02 08:24:46;;;;;;;1597.05;999.90;;;34.30;99.90;;;;;;5113686;28;20028;-68
2023/12/02 08:27:12;;;;;;;1599.20;999.90;;;34.20;99.90;;;;;;5113591;28;20547;-68
2023/12/02 08:29:39;;;;;;;1603.53;999.90;;;34.20;99.90;;;;;;5113874;28;20111;-68
2023/12/02 08:32:06;;;;;;;1599.63;999.90;;;34.30;99.90;;;;;;5113727;28;20477;-69
2023/12/02 08:34:32;;;;;;;1609.28;999.90;;;34.30;99.90;;;;;;5113546;28;20038;-69
2023/12/02 08:36:59;;;;;;;1586.38;999.90;;;34.30;99.90;;;;;;5113677;28;20446;-68
2023/12/02 08:39:26;;;;;;;1587.95;999.90;;;34.30;99.90;;;;;;5113643;28;20020;-69
2023/12/02 08:41:52;;;;;;;1601.43;999.90;;;34.40;99.90;;;;;;5113000;28;20015;-68
2023/12/02 08:44:19;;;;;;;1589.10;999.90;;;34.40;99.90;;;;;;5113703;28;20022;-68
2023/12/02 08:46:45;;;;;;;1594.85;999.90;;;34.40;99.90;;;;;;5113660;28;20016;-69
2023/12/02 08:49:12;;;;;;;1592.53;999.90;;;34.40;99.90;;;;;;5113482;28;20363;-69
2023/12/02 08:51:39;;;;;;;1599.53;999.90;;;34.30;99.90;;;;;;5113567;28;20039;-68
2023/12/02 08:54:06;;;;;;;1584.53;999.90;;;34.20;99.90;;;;;;5113371;28;20493;-67
2023/12/02 08:56:33;;;;;;;1602.88;999.90;;;34.20;99.90;;;;;;5113306;28;20363;-68
2023/12/02 08:58:59;;;;;;;1601.03;999.90;;;34.20;99.90;;;;;;5113191;28;20517;-67
2023/12/02 09:01:27;;;;;;;1606.50;999.90;;;34.10;99.90;;;;;;5113402;28;20028;-67
2023/12/02 09:03:53;;;;;;;1642.57;999.90;;;34.00;99.90;;;;;;5113066;28;20385;-68
2023/12/02 09:06:20;;;;;;;1634.95;999.90;;;34.10;99.90;;;;;;5113597;28;20016;-69
2023/12/02 09:08:47;;;;;;;1601.15;999.90;;;34.00;99.90;;;;;;5113452;28;20478;-68
2023/12/02 09:11:13;;;;;;;1606.40;999.90;;;34.00;99.90;;;;;;5113156;28;20028;-67
2023/12/02 09:13:40;;;;;;;1602.93;999.90;;;34.00;99.90;;;;;;5113359;28;20489;-68
2023/12/02 09:16:12;;;;;;;1611.75;999.90;;;34.00;99.90;;;;;;5113244;28;20478;-67
2023/12/02 09:18:38;;;;;;;1608.18;999.90;;;33.90;99.90;;;;;;5113144;28;20034;-68
2023/12/02 09:21:20;;;;;;;1598.78;999.90;;;34.00;99.90;;;;;;5113491;28;20040;-68
2023/12/02 09:23:50;;;;;;;1658.95;999.90;;;33.90;99.90;;;;;;5113168;28;20112;-68
2023/12/02 09:26:28;;;;;;;1623.95;999.90;;;33.90;99.90;;;;;;5113235;28;20040;-68
2023/12/02 09:28:55;;;;;;;1616.60;999.90;;;34.00;99.90;;;;;;5113116;28;20024;-71
2023/12/02 09:31:22;;;;;;;1617.80;999.90;;;33.90;99.90;;;;;;5113015;28;20038;-70
2023/12/02 09:33:59;;;;;;;1652.10;999.90;;;33.90;99.90;;;;;;5113199;28;20085;-71
2023/12/02 09:36:40;;;;;;;1638.82;999.90;;;34.00;99.90;;;;;;5113182;28;20030;-68
2023/12/02 09:39:09;;;;;;;1623.75;999.90;;;33.90;99.90;;;;;;5113095;28;20107;-69
2023/12/02 09:41:45;;;;;;;1636.03;999.90;;;33.90;99.90;;;;;;5092620;28;20035;-69
2023/12/02 09:44:21;;;;;;;1629.18;999.90;;;33.90;99.90;;;;;;5072483;28;20035;-67
2023/12/02 09:47:12;;;;;;;1644.32;999.90;;;33.90;99.90;;;;;;5072839;28;20428;-67
2023/12/02 09:49:53;;;;;;;1661.85;999.90;;;33.90;99.90;;;;;;5095581;28;20020;-69
2023/12/02 09:52:36;;;;;;;1663.88;999.90;;;33.80;99.90;;;;;;5098111;28;20022;-69
2023/12/02 09:55:36;;;;;;;1692.78;999.90;;;33.80;99.90;;;;;;5103514;28;20032;-67
2023/12/02 09:58:07;;;;;;;1673.20;999.90;;;33.80;99.90;;;;;;5104587;28;20028;-68
2023/12/02 10:00:35;;;;;;;1647.63;999.90;;;33.70;99.90;;;;;;5086474;28;20069;-66
2023/12/02 10:03:08;;;;;;;1649.47;999.90;;;33.70;99.90;;;;;;5075895;28;20021;-67
2023/12/02 10:05:53;;;;;;;1635.43;999.90;;;33.60;99.90;;;;;;5078390;28;20056;-67
2023/12/02 10:08:29;;;;;;;1659.63;999.90;;;33.50;99.90;;;;;;5089174;28;20047;-69
2023/12/02 10:11:06;;;;;;;1658.32;999.90;;;33.40;99.90;;;;;;5084492;28;20020;-69
2023/12/02 10:13:44;;;;;;;1751.32;999.90;;;33.30;99.90;;;;;;5079119;28;20032;-67
2023/12/02 10:16:16;;;;;;;1677.07;999.90;;;33.40;99.90;;;;;;5075880;28;20029;-66
2023/12/02 10:18:49;;;;;;;1661.05;999.90;;;33.40;99.90;;;;;;5056624;28;20459;-65
2023/12/02 10:21:19;;;;;;;1710.80;999.90;;;33.30;99.90;;;;;;5075243;28;20067;-67
2023/12/02 10:23:47;;;;;;;1680.65;999.90;;;33.40;99.90;;;;;;5073569;28;20103;-67
2023/12/02 10:26:17;;;;;;;1680.38;999.90;;;33.40;99.90;;;;;;5098771;28;20054;-66
2023/12/02 10:28:47;;;;;;;1672.30;999.90;;;33.40;99.90;;;;;;5115813;28;20603;-67
2023/12/02 10:31:27;;;;;;;1638.85;999.90;;;33.40;99.90;;;;;;5115504;28;20070;-71
2023/12/02 10:34:07;;;;;;;1648.35;999.90;;;33.30;99.90;;;;;;5115849;28;20023;-72
2023/12/02 10:36:34;;;;;;;1648.00;999.90;;;33.30;99.90;;;;;;5115359;28;20020;-67
2023/12/02 10:39:09;;;;;;;1642.80;999.90;;;33.20;99.90;;;;;;5115703;28;20524;-68
2023/12/02 10:41:46;;;;;;;1628.38;999.90;;;33.10;99.90;;;;;;5115691;28;20105;-69
2023/12/02 10:44:16;;;;;;;1624.68;999.90;;;32.90;99.90;;;;;;5115770;28;20027;-68
2023/12/02 10:46:44;;;;;;;1626.28;999.90;;;32.80;99.90;;;;;;5115623;28;20466;-68
2023/12/02 10:49:13;;;;;;;1626.20;999.90;;;32.70;99.90;;;;;;5115600;28;20055;-68
2023/12/02 10:51:42;;;;;;;1624.13;999.90;;;32.60;99.90;;;;;;5115562;28;20485;-67
2023/12/02 10:54:11;;;;;;;1650.68;999.90;;;32.40;99.90;;;;;;5115682;28;20438;-66
2023/12/02 10:56:40;;;;;;;1701.28;999.90;;;32.30;99.90;;;;;;5115239;28;20038;-67
2023/12/02 10:59:08;;;;;;;1658.57;999.90;;;32.30;99.90;;;;;;5097348;28;20119;-69
2023/12/02 11:02:00;;;;;;;1643.75;999.90;;;32.20;99.90;;;;;;5080846;28;20104;-69
2023/12/02 11:04:45;;;;;;;1632.00;999.90;;;32.20;99.90;;;;;;5083030;28;20472;-67
2023/12/02 11:07:15;;;;;;;1620.55;999.90;;;32.10;99.90;;;;;;5074461;28;20129;-67
2023/12/02 11:09:42;;;;;;;1634.30;999.90;;;32.00;99.90;;;;;;5074642;28;20024;-68
2023/12/02 11:12:42;;;;;;;1657.60;999.90;;;32.00;99.90;;;;;;5083388;28;20031;-67
2023/12/02 11:15:12;;;;;;;1626.28;999.90;;;32.00;99.90;;;;;;5103697;28;20025;-66
2023/12/02 11:17:42;;;;;;;1639.13;999.90;;;32.00;99.90;;;;;;5109172;28;20015;-69
2023/12/02 11:20:26;;;;;;;1628.90;999.90;;;32.00;99.90;;;;;;5104785;28;20016;-69
2023/12/02 11:22:53;;;;;;;1636.32;999.90;;;31.80;99.90;;;;;;5104333;28;20063;-68
2023/12/02 11:25:50;;;;;;;1630.80;999.90;;;31.80;99.90;;;;;;5094714;28;20032;-69
2023/12/02 11:28:28;;;;;;;1634.78;999.90;;;31.60;99.90;;;;;;5094519;28;20064;-71
2023/12/02 11:30:56;;;;;;;1632.55;999.90;;;31.50;99.90;;;;;;5094577;28;20248;-71
2023/12/02 11:34:00;;;;;;;1633.47;999.90;;;31.40;99.90;;;;;;5094342;28;20485;-70
2023/12/02 11:36:36;;;;;;;1645.55;999.90;;;31.30;99.90;;;;;;5094690;28;20051;-71
2023/12/02 11:39:03;;;;;;;1643.47;999.90;;;31.50;99.90;;;;;;5094556;28;20020;-71
2023/12/02 11:41:41;;;;;;;1642.07;999.90;;;31.50;99.90;;;;;;5077707;28;20016;-67
2023/12/02 11:44:10;;;;;;;1627.93;999.90;;;31.50;99.90;;;;;;5089259;28;20474;-68
2023/12/02 11:47:05;;;;;;;1659.15;999.90;;;31.50;99.90;;;;;;5094022;28;20071;-67
2023/12/02 11:49:41;;;;;;;1635.65;999.90;;;31.40;99.90;;;;;;5075516;28;20536;-66
2023/12/02 11:52:19;;;;;;;1643.88;999.90;;;31.30;99.90;;;;;;5079258;28;20470;-67
2023/12/02 11:54:58;;;;;;;1652.78;999.90;;;31.30;99.90;;;;;;5073709;28;20073;-66
2023/12/02 11:57:34;;;;;;;1647.22;999.90;;;31.10;99.90;;;;;;5072660;28;20440;-66
2023/12/02 12:00:06;;;;;;;1658.03;999.90;;;31.10;99.90;;;;;;5072269;28;20017;-66
2023/12/02 12:02:33;;;;;;;1659.80;999.90;;;31.20;99.90;;;;;;5073000;28;20032;-67
2023/12/02 12:05:30;;;;;;;1637.53;999.90;;;31.20;99.90;;;;;;5073116;28;20025;-67